Hoffman, Minnesota
Current Conditions -  °F | °C
As of 2:16 AM on Saturday 25 Oct 2014 (Local Time) from KY63 Reporting Station
Scattered Clouds Scattered Clouds  
Wind Chill: 50°   Ceiling: Unl
Heat Index: 50°   Visibility: 10mi
Dew Point: 35°   Wind: 7mph
Humidity: 55%   Direction: 300°WNW
Pressure: 29.99"   Gusts: NA
Location:  45.83°N, 95.79°W
Report Text: KY63 250716Z AUTO 30006KT 10SM SCT110 10/02 A2999 RMK AO2 T01010015
Loading
Personal Weather Stations






























Interactive Weather Map
Tropical Storm Tracking
New forecast layout! Learn more

10-Day Weather Forecast

Advertisements
Track Severe Weather on mobile